YPPH/PER METAR and TAF weather

Enter ICAO airport designator
Station Type Date Time Source
YPPH METAR 2019/06/27 10:00 UTC NOAA

YPPH 271000Z 23011KT 9999 VCSH SCT030 BKN055 13/08 Q1011 INTER 1000/1300 24025G40KT 2000 TSRAGS SCT015 FEW040CB


Station Type Date Time Source
YPPH Decoded METAR 2019/06/27 10:00 UTC NOAA

Belmont Perth Airport , Australia (YPPH) 31-56S 115-57E 29M
Jun 27, 2019 - 06:00 AM EDT / 2019.06.27 1000 UTC
Wind: from the SW (230 degrees) at 13 MPH (11 KT):0
Visibility: greater than 7 mile(s):0
Sky conditions: mostly cloudy
Weather: showers in the vicinity; Cumulonimbus clouds observed
Temperature: 55 F (13 C)
Dew Point: 46 F (8 C)
Relative Humidity: 71%
Pressure (altimeter): 29.85 in. Hg (1011 hPa)
ob: YPPH 271000Z 23011KT 9999 VCSH SCT030 BKN055 13/08 Q1011 INTER 1000/1300 24025G40KT 2000 TSRAGS SCT015 FEW040CB
cycle: 10

Station Type Date Time Source
YPPH TAF 2019/06/27 06:36 UTC NOAA

TAF
AMD TAF
AMD YPPH 270535Z 2706/2812 28015G25KT 9999 -SHRA BKN045
FM270900 24010KT 9999 -SHRA BKN045
FM271800 19006KT 9999 -SHRA BKN045
FM280200 19008KT 9999 SCT045 INTER 2706/2709 28025G45KT 2000 TSRA SCT010 FEW040CB INTER 2709/2724 25020G30KT 4000 SHRAGS SCT015 BKN040 PROB30 INTER 2709/2724 25025G40KT 2000 TSRAGS SCT012 FEW045CB

Example: see airport list